Time;durP1;ratioP1;P1;durP2;ratioP2;P2;SDS_P1;SDS_P2;PMS_P1;PMS_P2;Temp;Humidity;BMP_temperature;BMP_pressure;BME280_temperature;BME280_humidity;BME280_pressure;Samples;Min_cycle;Max_cycle;Signal;HPM_P1;HPM_P2
2022/02/24 00:00:30;;;;;;;3.63;1.65;;;;;;;14.01;38.27;101385.41;5049824;28;20475;-80
2022/02/24 00:02:57;;;;;;;5.90;2.05;;;;;;;14.00;38.40;101387.25;5054931;28;20118;-80
2022/02/24 00:05:24;;;;;;;3.03;1.52;;;;;;;13.99;38.39;101388.25;5056001;28;20568;-80
2022/02/24 00:07:51;;;;;;;4.57;2.00;;;;;;;13.98;38.38;101386.50;5049696;28;20084;-81
2022/02/24 00:10:20;;;;;;;3.47;1.80;;;;;;;13.97;38.33;101383.88;5049459;28;20057;-80
2022/02/24 00:12:48;;;;;;;5.07;1.63;;;;;;;13.97;38.48;101383.88;5050357;28;20126;-80
2022/02/24 00:15:15;;;;;;;7.90;1.95;;;;;;;13.94;38.60;101373.19;5048797;28;20071;-79
2022/02/24 00:17:43;;;;;;;4.60;1.65;;;;;;;13.94;38.45;101370.44;5054964;28;20559;-80
2022/02/24 00:20:11;;;;;;;4.75;1.95;;;;;;;13.93;38.44;101364.13;5048244;28;20080;-80
2022/02/24 00:22:38;;;;;;;4.55;1.92;;;;;;;13.93;38.24;101361.38;5050127;28;20057;-79
2022/02/24 00:25:06;;;;;;;3.92;1.75;;;;;;;13.94;38.50;101362.25;5048379;28;20144;-80
2022/02/24 00:27:32;;;;;;;6.07;1.90;;;;;;;13.92;38.58;101362.38;5057886;28;20048;-79
2022/02/24 00:29:59;;;;;;;3.35;1.52;;;;;;;13.91;38.51;101347.00;5050080;28;20084;-80
2022/02/24 00:32:25;;;;;;;3.97;1.85;;;;;;;13.92;38.73;101351.44;5050167;28;20092;-79
2022/02/24 00:34:52;;;;;;;5.00;1.80;;;;;;;13.92;38.78;101348.72;5048153;28;20061;-80
2022/02/24 00:37:19;;;;;;;4.47;1.90;;;;;;;13.92;38.40;101347.84;5046742;28;20049;-79
2022/02/24 00:39:46;;;;;;;4.90;1.50;;;;;;;13.93;38.98;101355.06;5045147;28;20095;-80
2022/02/24 00:42:13;;;;;;;4.63;1.92;;;;;;;13.92;38.84;101343.25;5061398;28;20049;-80
2022/02/24 00:44:48;;;;;;;6.53;2.17;;;;;;;13.96;38.83;101352.97;5050640;28;20417;-80
2022/02/24 00:47:16;;;;;;;5.20;2.00;;;;;;;13.92;39.23;101356.03;5059504;28;20040;-80
2022/02/24 00:49:42;;;;;;;4.50;1.70;;;;;;;13.93;38.79;101360.50;5054127;28;20056;-80
2022/02/24 00:52:12;;;;;;;4.00;1.90;;;;;;;13.93;38.64;101350.47;5050053;28;20053;-80
2022/02/24 00:54:39;;;;;;;3.03;1.55;;;;;;;13.93;39.14;101347.75;5047939;28;20075;-80
2022/02/24 00:57:05;;;;;;;4.15;1.55;;;;;;;13.93;38.92;101338.66;5054112;28;20057;-80
2022/02/24 00:59:32;;;;;;;4.32;1.48;;;;;;;13.94;38.83;101334.97;5061671;28;20461;-80
2022/02/24 01:01:58;;;;;;;3.83;1.80;;;;;;;13.94;38.92;101340.41;5049548;28;20045;-80
2022/02/24 01:04:25;;;;;;;5.97;1.90;;;;;;;13.94;39.00;101329.50;5048381;28;20060;-80
2022/02/24 01:06:52;;;;;;;3.90;1.50;;;;;;;13.94;38.88;101332.22;5035235;28;20045;-80
2022/02/24 01:09:19;;;;;;;3.97;1.50;;;;;;;13.94;39.00;101335.84;5045389;28;20111;-80
2022/02/24 01:11:46;;;;;;;4.20;1.40;;;;;;;13.93;39.06;101325.91;5049661;28;20106;-81
2022/02/24 01:14:13;;;;;;;3.95;1.60;;;;;;;13.94;38.97;101324.03;5048533;28;20044;-80
2022/02/24 01:16:39;;;;;;;3.70;1.60;;;;;;;13.92;39.05;101313.22;5044698;28;20131;-80
2022/02/24 01:19:06;;;;;;;4.45;1.70;;;;;;;13.93;39.20;101314.97;5045913;28;20049;-80
2022/02/24 01:21:34;;;;;;;3.22;1.50;;;;;;;13.93;39.31;101314.97;5055321;28;20052;-78
2022/02/24 01:24:01;;;;;;;5.65;1.58;;;;;;;13.92;38.89;101310.50;5047860;28;20052;-80
2022/02/24 01:26:28;;;;;;;3.95;1.50;;;;;;;13.93;39.42;101301.31;5049471;28;20481;-80
2022/02/24 01:28:54;;;;;;;4.63;1.45;;;;;;;13.94;39.15;101299.47;5047505;28;20136;-80
2022/02/24 01:31:22;;;;;;;4.70;1.67;;;;;;;13.94;39.18;101302.19;5049312;28;20083;-78
2022/02/24 01:33:49;;;;;;;3.22;1.45;;;;;;;13.96;38.92;101294.78;5035157;28;20052;-78
2022/02/24 01:36:16;;;;;;;3.72;1.38;;;;;;;13.95;38.91;101290.31;5048114;28;20087;-78
2022/02/24 01:38:42;;;;;;;4.20;1.73;;;;;;;13.95;39.06;101288.44;5036845;28;20160;-79
2022/02/24 01:41:09;;;;;;;3.65;1.75;;;;;;;13.93;38.92;101286.81;5050056;28;20337;-78
2022/02/24 01:43:35;;;;;;;4.80;1.80;;;;;;;13.91;38.73;101277.88;5048372;28;20060;-78
2022/02/24 01:46:02;;;;;;;2.95;1.38;;;;;;;13.92;38.72;101282.31;5047656;28;20072;-78
2022/02/24 01:48:29;;;;;;;2.75;1.42;;;;;;;13.91;39.19;101273.28;5045750;28;20044;-79
2022/02/24 01:50:56;;;;;;;4.50;1.40;;;;;;;13.91;38.87;101267.84;5057630;28;20084;-79
2022/02/24 01:53:23;;;;;;;3.10;1.42;;;;;;;13.90;39.08;101268.81;5043374;28;20081;-78
2022/02/24 01:55:49;;;;;;;3.60;1.50;;;;;;;13.90;39.05;101260.63;5061976;28;20048;-79
2022/02/24 01:58:19;;;;;;;5.05;1.30;;;;;;;13.93;39.11;101262.25;5042646;28;20136;-79
2022/02/24 02:00:46;;;;;;;4.90;1.85;;;;;;;13.90;39.00;101254.31;5062280;28;20102;-78
2022/02/24 02:03:13;;;;;;;3.20;1.50;;;;;;;13.91;39.17;101253.31;5049170;28;20053;-78
2022/02/24 02:05:41;;;;;;;3.42;1.52;;;;;;;13.89;38.94;101249.81;5060953;28;20053;-79
2022/02/24 02:08:08;;;;;;;3.63;1.30;;;;;;;13.88;39.21;101234.44;5040393;28;20163;-79
2022/02/24 02:10:35;;;;;;;5.25;1.80;;;;;;;13.86;39.09;101239.13;5052888;28;20059;-78
2022/02/24 02:13:02;;;;;;;3.40;1.33;;;;;;;13.88;39.20;101242.63;5034135;28;20053;-79
2022/02/24 02:15:29;;;;;;;4.32;1.67;;;;;;;13.86;39.14;101237.25;5051043;28;20107;-79
2022/02/24 02:17:56;;;;;;;3.25;1.67;;;;;;;13.85;39.11;101227.31;5046019;28;20053;-78
2022/02/24 02:20:23;;;;;;;3.65;1.70;;;;;;;13.85;39.13;101221.00;5047677;28;20068;-78
2022/02/24 02:22:52;;;;;;;3.75;1.45;;;;;;;13.85;39.04;101218.28;5052515;28;20144;-79
2022/02/24 02:25:20;;;;;;;5.00;1.60;;;;;;;13.84;39.46;101221.97;5046777;28;20084;-79
2022/02/24 02:27:52;;;;;;;4.15;1.40;;;;;;;13.86;39.39;101215.44;5050155;28;20155;-79
2022/02/24 02:30:20;;;;;;;4.57;1.60;;;;;;;13.84;39.26;101209.22;5030406;28;20077;-79
2022/02/24 02:32:47;;;;;;;4.05;1.60;;;;;;;13.83;39.42;101209.34;5043826;28;20052;-80
2022/02/24 02:35:15;;;;;;;4.15;1.42;;;;;;;13.83;39.24;101212.94;5049037;28;20106;-79
2022/02/24 02:37:42;;;;;;;3.30;1.58;;;;;;;13.82;39.25;101215.78;5053101;28;20135;-80
2022/02/24 02:40:10;;;;;;;3.97;2.00;;;;;;;13.83;39.08;101199.31;5035216;28;20053;-79
2022/02/24 02:42:37;;;;;;;4.05;1.80;;;;;;;13.81;39.22;101194.94;5050256;28;20059;-79
2022/02/24 02:45:05;;;;;;;4.28;1.52;;;;;;;13.80;39.22;101198.66;5049298;28;20052;-79
2022/02/24 02:47:31;;;;;;;4.03;1.63;;;;;;;13.80;39.32;101204.09;5050460;28;20346;-79
2022/02/24 02:49:58;;;;;;;4.72;1.88;;;;;;;13.79;39.36;101202.34;5030367;28;20075;-80
2022/02/24 02:52:25;;;;;;;5.38;2.15;;;;;;;13.79;39.16;101197.78;5039434;28;20382;-80
2022/02/24 02:54:59;;;;;;;5.50;2.00;;;;;;;13.82;39.22;101193.94;5049391;28;20107;-80
2022/02/24 02:57:25;;;;;;;3.50;1.52;;;;;;;13.78;39.48;101189.69;5051782;28;20107;-80
2022/02/24 02:59:52;;;;;;;5.20;1.80;;;;;;;13.78;39.43;101176.94;5032947;28;20555;-79
2022/02/24 03:02:19;;;;;;;4.93;1.60;;;;;;;13.78;39.67;101173.31;5052436;28;20071;-80
2022/02/24 03:04:50;;;;;;;4.47;1.63;;;;;;;13.78;39.60;101170.59;5059378;28;20444;-79
2022/02/24 03:07:18;;;;;;;4.20;1.60;;;;;;;13.78;39.44;101166.00;5047459;28;20053;-79
2022/02/24 03:09:48;;;;;;;5.20;1.70;;;;;;;13.78;39.63;101162.41;5058678;28;20036;-79
2022/02/24 03:12:15;;;;;;;4.40;1.70;;;;;;;13.78;39.50;101152.38;5055069;28;20049;-80
2022/02/24 03:14:42;;;;;;;3.88;1.80;;;;;;;13.79;39.90;101154.09;5033217;28;20467;-79
2022/02/24 03:17:08;;;;;;;6.13;1.90;;;;;;;13.79;39.46;101147.78;5030750;28;20637;-79
2022/02/24 03:19:36;;;;;;;3.03;1.50;;;;;;;13.80;39.73;101146.78;5041086;28;20053;-80
2022/02/24 03:22:06;;;;;;;5.43;1.73;;;;;;;13.80;39.50;101127.69;5052468;28;20518;-79
2022/02/24 03:24:32;;;;;;;5.60;1.77;;;;;;;13.78;39.53;101129.66;5060224;28;20133;-79
2022/02/24 03:26:59;;;;;;;2.85;1.58;;;;;;;13.78;39.47;101129.66;5049555;28;20480;-79
2022/02/24 03:29:26;;;;;;;3.97;1.77;;;;;;;13.77;39.56;101125.19;5050398;28;20077;-79
2022/02/24 03:31:53;;;;;;;4.88;1.73;;;;;;;13.77;39.44;101131.50;5051600;28;20465;-79
2022/02/24 03:34:20;;;;;;;3.72;1.70;;;;;;;13.76;39.69;101113.41;5056694;28;20141;-79
2022/02/24 03:36:47;;;;;;;3.65;1.60;;;;;;;13.76;39.64;101113.41;5041288;28;20049;-79
2022/02/24 03:39:13;;;;;;;4.28;1.90;;;;;;;13.75;39.51;101110.81;5046553;28;20098;-79
2022/02/24 03:41:40;;;;;;;5.22;1.67;;;;;;;13.76;39.59;101110.66;5050985;28;20084;-79
2022/02/24 03:44:07;;;;;;;4.85;1.67;;;;;;;13.75;39.93;101108.94;5048706;28;20049;-79
2022/02/24 03:46:33;;;;;;;4.72;1.58;;;;;;;13.77;39.76;101108.81;5050148;28;20554;-79
2022/02/24 03:49:00;;;;;;;7.22;1.88;;;;;;;13.77;39.70;101104.22;5046952;28;20468;-79
2022/02/24 03:51:26;;;;;;;4.40;1.60;;;;;;;13.76;39.54;101093.41;5060414;28;20086;-79
2022/02/24 03:53:53;;;;;;;6.47;1.70;;;;;;;13.76;39.73;101093.41;5054300;28;20135;-80
2022/02/24 03:56:20;;;;;;;4.13;1.60;;;;;;;13.77;39.77;101086.97;5036012;28;20072;-79
2022/02/24 03:58:46;;;;;;;4.13;1.67;;;;;;;13.75;39.76;101078.94;5032213;28;20064;-79
2022/02/24 04:01:14;;;;;;;5.03;1.60;;;;;;;13.75;39.34;101076.22;5050995;28;20461;-79
2022/02/24 04:03:41;;;;;;;3.60;1.65;;;;;;;13.76;39.66;101071.59;5040293;28;20402;-79
2022/02/24 04:06:08;;;;;;;6.75;1.73;;;;;;;13.74;39.55;101069.00;5056188;28;20080;-80
2022/02/24 04:08:34;;;;;;;3.58;1.45;;;;;;;13.74;39.57;101066.28;5049771;28;20091;-79
2022/02/24 04:11:03;;;;;;;5.38;1.83;;;;;;;13.75;39.55;101064.41;5032983;28;20072;-79
2022/02/24 04:13:30;;;;;;;3.72;1.63;;;;;;;13.74;39.94;101059.94;5032031;28;20500;-79
2022/02/24 04:15:58;;;;;;;4.47;1.65;;;;;;;13.73;39.92;101050.88;5033128;28;20127;-80
2022/02/24 04:18:24;;;;;;;3.17;1.60;;;;;;;13.74;39.84;101057.22;5045291;28;20072;-79
2022/02/24 04:20:51;;;;;;;4.13;1.48;;;;;;;13.74;39.77;101049.91;5048567;28;20049;-79
2022/02/24 04:23:18;;;;;;;4.30;1.40;;;;;;;13.74;39.91;101058.09;5049463;28;20056;-79
2022/02/24 04:25:44;;;;;;;3.63;1.40;;;;;;;13.75;39.73;101053.50;5049144;28;20053;-79
2022/02/24 04:28:11;;;;;;;4.78;1.40;;;;;;;13.74;39.62;101044.44;5048987;28;20427;-79
2022/02/24 04:30:38;;;;;;;3.78;1.40;;;;;;;13.76;39.86;101055.22;5048421;28;20382;-79
2022/02/24 04:33:04;;;;;;;2.97;1.50;;;;;;;13.76;39.78;101049.75;5061458;28;20088;-80
2022/02/24 04:35:31;;;;;;;3.85;1.65;;;;;;;13.77;39.79;101040.59;5049546;28;20071;-80
2022/02/24 04:37:59;;;;;;;3.30;1.50;;;;;;;13.76;40.02;101041.56;5049050;28;20487;-79
2022/02/24 04:40:26;;;;;;;3.25;1.42;;;;;;;13.77;39.97;101044.19;5049551;28;20076;-80
2022/02/24 04:42:53;;;;;;;2.92;1.63;;;;;;;13.77;39.74;101041.47;5048874;28;20249;-79
2022/02/24 04:45:19;;;;;;;4.47;1.63;;;;;;;13.78;40.09;101035.03;5023626;28;20076;-79
2022/02/24 04:47:46;;;;;;;3.83;1.60;;;;;;;13.79;39.85;101030.44;5047656;28;20107;-79
2022/02/24 04:50:14;;;;;;;4.88;1.63;;;;;;;13.78;40.18;101026.84;5042278;28;20051;-80
2022/02/24 04:52:41;;;;;;;3.15;1.90;;;;;;;13.79;40.01;101027.69;5044346;28;20587;-79
2022/02/24 04:55:09;;;;;;;5.93;1.80;;;;;;;13.81;39.83;101031.19;5056150;28;20060;-79
2022/02/24 04:57:36;;;;;;;3.38;1.50;;;;;;;13.78;39.63;101024.09;5048429;28;20106;-79
2022/02/24 05:00:07;;;;;;;4.88;1.60;;;;;;;13.81;39.66;101017.53;5048729;28;20045;-79
2022/02/24 05:02:34;;;;;;;3.97;1.77;;;;;;;13.79;39.72;101008.59;5049364;28;20053;-79
2022/02/24 05:05:01;;;;;;;4.53;1.40;;;;;;;13.78;39.69;101007.72;5056789;28;20139;-79
2022/02/24 05:07:27;;;;;;;3.00;1.40;;;;;;;13.78;39.88;101004.13;5051553;28;20076;-79
2022/02/24 05:09:54;;;;;;;3.72;1.40;;;;;;;13.78;39.86;101004.13;5057083;28;20053;-79
2022/02/24 05:12:25;;;;;;;3.60;1.67;;;;;;;13.76;39.75;100990.59;5058987;28;20111;-79
2022/02/24 05:14:52;;;;;;;4.15;1.70;;;;;;;13.76;39.86;100992.44;5047980;28;20045;-79
2022/02/24 05:17:21;;;;;;;4.55;1.48;;;;;;;13.76;39.68;100973.34;5047651;28;20064;-79
2022/02/24 05:19:48;;;;;;;3.47;1.58;;;;;;;13.74;39.78;100961.72;5043815;28;20106;-79
2022/02/24 05:22:15;;;;;;;4.78;1.42;;;;;;;13.74;39.94;100951.66;5051417;28;20089;-79
2022/02/24 05:24:41;;;;;;;3.75;1.40;;;;;;;13.74;40.07;100948.94;5057089;28;20053;-79
2022/02/24 05:27:08;;;;;;;4.07;1.90;;;;;;;13.73;39.91;100955.38;5043307;28;20102;-79
2022/02/24 05:29:34;;;;;;;3.63;1.45;;;;;;;13.73;39.99;100951.78;5047943;28;20455;-79
2022/02/24 05:32:01;;;;;;;3.50;1.42;;;;;;;13.73;40.00;100951.78;5049277;28;20416;-79
2022/02/24 05:34:29;;;;;;;2.65;1.30;;;;;;;13.72;39.86;100940.00;5048498;28;20061;-79
2022/02/24 05:36:56;;;;;;;5.40;1.60;;;;;;;13.72;40.00;100940.00;5046363;28;20449;-79
2022/02/24 05:39:23;;;;;;;6.18;1.50;;;;;;;13.71;40.02;100930.94;5047604;28;20435;-80
2022/02/24 05:41:49;;;;;;;4.60;1.48;;;;;;;13.71;39.81;100932.78;5048791;28;20056;-80
2022/02/24 05:44:16;;;;;;;4.82;1.50;;;;;;;13.71;40.00;100930.94;5046716;28;20061;-79
2022/02/24 05:46:43;;;;;;;2.80;1.42;;;;;;;13.70;39.93;100934.66;5047640;28;20057;-80
2022/02/24 05:49:12;;;;;;;3.25;1.52;;;;;;;13.71;39.98;100928.22;5038493;28;20061;-80
2022/02/24 05:51:38;;;;;;;5.07;1.63;;;;;;;13.70;39.73;100923.75;5052480;28;20095;-79
2022/02/24 05:54:05;;;;;;;3.78;1.40;;;;;;;13.70;40.24;100912.81;5039760;28;20056;-80
2022/02/24 05:56:31;;;;;;;3.88;1.50;;;;;;;13.71;40.03;100921.88;5030668;28;20110;-80
2022/02/24 05:58:58;;;;;;;4.47;1.55;;;;;;;13.71;40.14;100921.88;5047646;28;20743;-80
2022/02/24 06:01:24;;;;;;;3.05;1.27;;;;;;;13.71;39.93;100917.31;5038480;28;20048;-79
2022/02/24 06:03:52;;;;;;;5.40;1.52;;;;;;;13.72;39.92;100923.63;5041685;28;20049;-79
2022/02/24 06:06:19;;;;;;;4.72;1.40;;;;;;;13.71;40.19;100921.88;5048433;28;20098;-79
2022/02/24 06:08:48;;;;;;;3.83;1.70;;;;;;;13.71;39.94;100919.16;5048470;28;20132;-80
2022/02/24 06:11:15;;;;;;;3.20;1.45;;;;;;;13.70;39.92;100929.19;5061704;28;20481;-80
2022/02/24 06:13:42;;;;;;;3.55;1.40;;;;;;;13.71;39.94;100925.47;5047213;28;20544;-80
2022/02/24 06:16:08;;;;;;;3.80;1.60;;;;;;;13.70;40.08;100934.66;5047905;28;20092;-80
2022/02/24 06:18:35;;;;;;;3.58;1.40;;;;;;;13.71;40.36;100927.34;5044669;28;20055;-80
2022/02/24 06:21:02;;;;;;;4.55;1.40;;;;;;;13.69;39.87;100930.19;5067686;28;20159;-79
2022/02/24 06:23:28;;;;;;;3.42;1.45;;;;;;;13.70;40.24;100929.19;5053338;28;20060;-79
2022/02/24 06:25:55;;;;;;;4.35;1.50;;;;;;;13.71;40.20;100921.88;5047677;28;20045;-80
2022/02/24 06:28:28;;;;;;;4.93;1.73;;;;;;;13.69;40.15;100921.13;5052609;28;20060;-79
2022/02/24 06:30:54;;;;;;;3.85;1.65;;;;;;;13.71;40.19;100925.47;5056882;28;20579;-80
2022/02/24 06:33:21;;;;;;;5.30;1.88;;;;;;;13.71;39.79;100924.63;5029637;28;20087;-79
2022/02/24 06:35:47;;;;;;;5.50;1.70;;;;;;;13.71;40.05;100928.22;5030143;28;20052;-80
2022/02/24 06:38:14;;;;;;;4.22;1.85;;;;;;;13.71;40.26;100921.88;5046386;28;20124;-80
2022/02/24 06:40:41;;;;;;;5.35;1.50;;;;;;;13.71;39.95;100921.88;5047280;28;20049;-79
2022/02/24 06:43:07;;;;;;;4.85;1.83;;;;;;;13.70;40.16;100925.59;5041522;28;20072;-80
2022/02/24 06:45:34;;;;;;;3.78;1.70;;;;;;;13.69;40.24;100924.72;5019482;28;20092;-80
2022/02/24 06:48:01;;;;;;;5.32;1.58;;;;;;;13.70;39.98;100910.09;5045936;28;20401;-80
2022/02/24 06:50:27;;;;;;;5.70;1.80;;;;;;;13.71;40.33;100910.97;5059933;28;20128;-80
2022/02/24 06:52:54;;;;;;;4.57;1.35;;;;;;;13.71;40.34;100914.56;5040652;28;20088;-80
2022/02/24 06:55:21;;;;;;;4.45;1.70;;;;;;;13.71;40.07;100906.38;5050734;28;20045;-80
2022/02/24 06:57:52;;;;;;;4.22;1.52;;;;;;;13.73;40.17;100900.81;5067270;28;20562;-80
2022/02/24 07:04:00;;;;;;;4.65;1.65;;;;;;;13.69;40.02;100896.56;5041072;28;20141;-79
2022/02/24 07:06:27;;;;;;;7.45;1.90;;;;;;;13.69;39.94;100885.66;5044097;28;20076;-79
2022/02/24 07:08:56;;;;;;;3.58;1.35;;;;;;;13.68;39.83;100884.78;5050045;28;20057;-79
2022/02/24 07:11:23;;;;;;;4.00;1.25;;;;;;;13.69;39.87;100888.38;5054161;28;20092;-80
2022/02/24 07:13:50;;;;;;;5.63;1.35;;;;;;;13.68;39.81;100881.19;5053823;28;20098;-81
2022/02/24 07:16:28;;;;;;;5.80;1.98;;;;;;;13.67;39.89;100879.47;5056432;28;20057;-80
2022/02/24 07:18:54;;;;;;;4.30;1.50;;;;;;;13.66;40.01;100883.19;5049182;28;20065;-79
2022/02/24 07:21:21;;;;;;;4.50;1.25;;;;;;;13.64;40.09;100876.97;5062270;28;20094;-79
2022/02/24 07:23:48;;;;;;;3.67;1.30;;;;;;;13.64;39.90;100879.72;5029871;28;20080;-79
2022/02/24 07:26:14;;;;;;;3.25;1.30;;;;;;;13.64;39.89;100874.25;5033921;28;20479;-80
2022/02/24 07:28:43;;;;;;;4.00;1.73;;;;;;;13.63;40.04;100876.09;5033000;28;20135;-80
2022/02/24 07:31:12;;;;;;;3.22;1.20;;;;;;;13.64;40.05;100864.22;5051224;28;20045;-79
2022/02/24 07:33:39;;;;;;;4.03;1.38;;;;;;;13.65;39.97;100873.25;5050184;28;20515;-79
2022/02/24 07:36:06;;;;;;;3.60;1.25;;;;;;;13.64;40.03;100866.06;5050895;28;20056;-80
2022/02/24 07:38:32;;;;;;;2.30;1.10;;;;;;;13.64;40.26;100857.88;5049077;28;20096;-79
2022/02/24 07:40:59;;;;;;;3.30;1.30;;;;;;;13.65;40.34;100854.16;5051186;28;20092;-79
2022/02/24 07:43:25;;;;;;;3.60;1.40;;;;;;;13.65;40.04;100846.84;5051199;28;20049;-79
2022/02/24 07:45:52;;;;;;;3.95;1.60;;;;;;;13.67;40.35;100852.19;5044900;28;20049;-80
2022/02/24 07:48:19;;;;;;;4.68;1.90;;;;;;;13.68;40.39;100843.00;5048425;28;20404;-80
2022/02/24 07:50:45;;;;;;;5.07;1.83;;;;;;;13.67;40.15;100844.84;5059097;28;20140;-80
2022/02/24 07:53:14;;;;;;;4.22;1.60;;;;;;;13.69;40.14;100829.22;5031720;28;20061;-80
2022/02/24 07:55:41;;;;;;;4.38;1.55;;;;;;;13.72;40.16;100836.31;5064125;28;20124;-79
2022/02/24 07:58:09;;;;;;;4.38;1.60;;;;;;;13.73;40.32;100832.59;5037530;28;20081;-79
2022/02/24 08:00:37;;;;;;;3.67;1.75;;;;;;;13.75;40.06;100835.22;5047352;28;20057;-78
2022/02/24 08:03:04;;;;;;;3.55;1.58;;;;;;;13.74;40.06;100820.69;5024899;28;20071;-80
2022/02/24 08:05:31;;;;;;;4.28;1.73;;;;;;;13.76;40.00;100832.31;5031444;28;20069;-79
2022/02/24 08:07:57;;;;;;;4.20;1.85;;;;;;;13.77;40.58;100828.63;5049761;28;20132;-80
2022/02/24 08:10:24;;;;;;;5.82;1.45;;;;;;;13.79;40.16;100818.44;5053774;28;20053;-79
2022/02/24 08:12:51;;;;;;;3.05;1.42;;;;;;;13.80;40.08;100824.78;5066528;28;20041;-79
2022/02/24 08:15:21;;;;;;;5.00;1.88;;;;;;;13.82;39.82;100822.81;5047784;28;20044;-79
2022/02/24 08:17:50;;;;;;;5.50;1.80;;;;;;;13.83;39.86;100813.63;5024962;28;20642;-80
2022/02/24 08:20:16;;;;;;;4.85;1.75;;;;;;;13.81;39.81;100808.28;5026763;28;20459;-79
2022/02/24 08:22:47;;;;;;;4.18;1.85;;;;;;;13.83;40.01;100814.50;5051287;28;20053;-79
2022/02/24 08:25:17;;;;;;;3.35;1.50;;;;;;;13.84;39.94;100810.75;5047972;28;20495;-79
2022/02/24 08:27:44;;;;;;;4.20;1.38;;;;;;;13.82;40.03;100799.09;5049549;28;20422;-79
2022/02/24 08:30:13;;;;;;;4.10;1.50;;;;;;;13.85;40.14;100803.44;5049239;28;20080;-79
2022/02/24 08:32:41;;;;;;;3.97;1.60;;;;;;;13.86;40.27;100805.16;5049610;28;20456;-78
2022/02/24 08:35:09;;;;;;;4.80;1.70;;;;;;;13.84;40.09;100808.00;5055554;28;20052;-79
2022/02/24 08:37:36;;;;;;;3.95;1.42;;;;;;;13.85;39.71;100801.56;5054447;28;20083;-80
2022/02/24 08:40:03;;;;;;;4.07;1.40;;;;;;;13.85;40.05;100806.16;5035188;28;20057;-79
2022/02/24 08:42:30;;;;;;;4.47;1.50;;;;;;;13.85;39.99;100800.69;5051296;28;20052;-79
2022/02/24 08:44:57;;;;;;;4.13;1.80;;;;;;;13.85;40.34;100793.38;5043816;28;20061;-79
2022/02/24 08:47:33;;;;;;;3.05;1.38;;;;;;;13.85;40.28;100787.06;5048142;28;20099;-79
2022/02/24 08:50:01;;;;;;;4.00;1.60;;;;;;;13.84;40.03;100774.41;5050585;28;20436;-79
2022/02/24 08:52:48;;;;;;;5.28;1.75;;;;;;;13.86;40.11;100794.25;5043679;28;20080;-79
2022/02/24 08:55:15;;;;;;;5.53;2.08;;;;;;;13.85;40.22;100779.75;5048382;28;20057;-79
2022/02/24 08:57:41;;;;;;;3.72;1.58;;;;;;;13.83;40.35;100778.16;5049714;28;20152;-79
2022/02/24 09:00:09;;;;;;;4.93;1.70;;;;;;;13.83;40.51;100780.88;5048289;28;20063;-79
2022/02/24 09:02:36;;;;;;;5.30;1.60;;;;;;;13.82;40.37;100770.94;5044640;28;20091;-79
2022/02/24 09:05:03;;;;;;;5.50;1.65;;;;;;;13.81;40.57;100763.75;5043533;28;20045;-79
2022/02/24 09:07:33;;;;;;;4.65;1.30;;;;;;;13.79;40.29;100752.97;5048909;28;20055;-79
2022/02/24 09:10:19;;;;;;;4.30;1.58;;;;;;;13.78;40.63;100739.44;5048330;28;20065;-79
2022/02/24 09:12:46;;;;;;;4.18;1.55;;;;;;;13.78;40.49;100753.94;5031797;28;20083;-79
2022/02/24 09:15:13;;;;;;;5.05;1.30;;;;;;;13.77;40.61;100760.41;5047688;28;20532;-79
2022/02/24 09:17:39;;;;;;;5.05;1.50;;;;;;;13.76;40.90;100760.50;5045287;28;20061;-79
2022/02/24 09:20:07;;;;;;;4.68;1.50;;;;;;;13.76;40.69;100744.13;5028043;28;20123;-79
2022/02/24 09:22:35;;;;;;;3.90;1.58;;;;;;;13.75;40.86;100734.25;5020737;28;20143;-80
2022/02/24 09:25:03;;;;;;;5.30;1.83;;;;;;;13.76;41.02;100742.28;5046984;28;20064;-79
2022/02/24 09:27:30;;;;;;;4.07;1.40;;;;;;;13.75;41.24;100726.94;5061498;28;20381;-79
2022/02/24 09:29:57;;;;;;;3.60;1.40;;;;;;;13.77;41.21;100733.09;5062861;28;20044;-79
2022/02/24 09:32:26;;;;;;;3.72;1.63;;;;;;;13.77;40.98;100735.84;5049059;28;20420;-79
2022/02/24 09:34:53;;;;;;;4.15;1.50;;;;;;;13.77;41.16;100733.09;5046934;28;20091;-79
2022/02/24 09:37:20;;;;;;;4.20;1.52;;;;;;;13.78;40.87;100714.88;5049075;28;20071;-79
2022/02/24 09:39:47;;;;;;;5.18;1.50;;;;;;;13.78;41.27;100704.81;5046417;28;20576;-79
2022/02/24 09:42:14;;;;;;;3.67;1.45;;;;;;;13.80;41.25;100712.91;5047087;28;20378;-79
2022/02/24 09:45:01;;;;;;;3.25;1.42;;;;;;;13.80;41.50;100715.63;5045393;28;20067;-79
2022/02/24 09:47:29;;;;;;;5.57;1.80;;;;;;;13.82;41.45;100703.59;5046530;28;20484;-79
2022/02/24 09:49:59;;;;;;;3.90;1.83;;;;;;;13.85;41.31;100697.88;5046822;28;20053;-79
2022/02/24 09:52:26;;;;;;;4.90;1.77;;;;;;;13.84;41.49;100689.81;5044177;28;20080;-79
2022/02/24 09:54:54;;;;;;;2.88;1.40;;;;;;;13.86;41.56;100682.38;5030505;28;20053;-79
2022/02/24 09:57:20;;;;;;;6.10;1.95;;;;;;;13.87;41.73;100684.97;5032057;28;20500;-79
2022/02/24 09:59:47;;;;;;;6.43;2.60;;;;;;;13.88;41.35;100673.06;5033895;28;20140;-79
2022/02/24 10:02:15;;;;;;;5.00;1.83;;;;;;;13.89;41.79;100669.34;5047684;28;20126;-79
2022/02/24 10:05:09;;;;;;;5.47;2.03;;;;;;;13.92;41.87;100657.28;5060467;28;20064;-79
2022/02/24 10:07:41;;;;;;;4.93;1.67;;;;;;;13.89;41.81;100650.25;5048607;28;20080;-79
2022/02/24 10:10:20;;;;;;;3.90;1.80;;;;;;;13.93;42.23;100639.91;5026184;28;20424;-79
2022/02/24 10:13:13;;;;;;;4.47;1.90;;;;;;;13.93;42.13;100645.38;5047401;28;20488;-79
2022/02/24 10:15:42;;;;;;;4.20;1.80;;;;;;;13.91;42.21;100637.34;5047351;28;20037;-79
2022/02/24 10:18:14;;;;;;;4.13;1.88;;;;;;;13.94;42.38;100617.94;5043212;28;20489;-80
2022/02/24 10:20:43;;;;;;;5.07;2.07;;;;;;;13.94;42.08;100620.69;5056979;28;20064;-79
2022/02/24 10:23:11;;;;;;;5.65;1.90;;;;;;;13.94;41.88;100614.34;5055098;28;20056;-79
2022/02/24 10:25:40;;;;;;;5.53;1.80;;;;;;;13.93;42.01;100609.88;5046174;28;20071;-79
2022/02/24 10:28:07;;;;;;;4.72;1.60;;;;;;;13.93;42.01;100610.75;5047133;28;20111;-79
2022/02/24 10:30:34;;;;;;;2.97;1.27;;;;;;;13.91;41.88;100601.84;5052048;28;20389;-79
2022/02/24 10:33:03;;;;;;;4.35;1.45;;;;;;;13.91;42.02;100609.19;5051043;28;20122;-79
2022/02/24 10:35:37;;;;;;;4.28;1.58;;;;;;;13.94;42.38;100615.22;5047010;28;20107;-79
2022/02/24 10:38:09;;;;;;;3.70;1.20;;;;;;;13.94;41.92;100604.31;5050001;28;20084;-79
2022/02/24 10:40:45;;;;;;;3.27;1.27;;;;;;;13.93;42.23;100612.63;5051867;28;20049;-79
2022/02/24 10:43:14;;;;;;;4.07;1.30;;;;;;;13.96;42.13;100609.63;5030071;28;20808;-78
2022/02/24 10:45:43;;;;;;;5.78;1.80;;;;;;;13.97;41.98;100605.91;5046751;28;20131;-79
2022/02/24 10:48:09;;;;;;;3.53;1.73;;;;;;;13.96;42.13;100599.59;5030585;28;20542;-79
2022/02/24 10:50:53;;;;;;;5.13;1.95;;;;;;;14.01;42.26;100602.78;5043167;28;20056;-79
2022/02/24 10:53:39;;;;;;;4.93;1.98;;;;;;;13.98;42.47;100602.19;5037491;28;20496;-79
2022/02/24 10:56:10;;;;;;;4.18;1.88;;;;;;;13.98;42.41;100581.22;5032471;28;20138;-78
2022/02/24 10:58:45;;;;;;;3.38;1.67;;;;;;;14.01;42.45;100569.16;5050865;28;20075;-79
2022/02/24 11:01:20;;;;;;;4.63;1.60;;;;;;;14.03;42.51;100564.44;5056353;28;20536;-79
2022/02/24 11:04:24;;;;;;;4.30;2.00;;;;;;;14.02;42.72;100565.44;5050797;28;20057;-78
2022/02/24 11:06:52;;;;;;;5.13;1.80;;;;;;;14.02;42.53;100558.13;5041885;28;20051;-79
2022/02/24 11:09:42;;;;;;;3.47;1.83;;;;;;;14.06;42.76;100543.22;5054189;28;20056;-79
2022/02/24 11:12:12;;;;;;;4.95;1.98;;;;;;;14.09;42.61;100542.94;5057158;28;20338;-79
2022/02/24 11:14:40;;;;;;;4.05;1.65;;;;;;;14.12;42.71;100540.94;5050402;28;20065;-79
2022/02/24 11:17:11;;;;;;;4.40;1.75;;;;;;;14.18;42.79;100532.22;5031699;28;20045;-79
2022/02/24 11:19:41;;;;;;;4.88;1.95;;;;;;;14.20;42.90;100538.41;5056854;28;20139;-79
2022/02/24 11:22:08;;;;;;;4.95;1.95;;;;;;;14.24;42.69;100528.97;5051334;28;20140;-79
2022/02/24 11:24:35;;;;;;;4.95;1.73;;;;;;;14.27;42.70;100535.00;5049583;28;20520;-79
2022/02/24 11:27:15;;;;;;;5.22;1.95;;;;;;;14.33;42.67;100511.78;5059549;28;20052;-79
2022/02/24 11:29:52;;;;;;;4.68;2.00;;;;;;;14.35;42.61;100507.91;5050478;28;20060;-80
2022/02/24 11:32:27;;;;;;;5.85;1.95;;;;;;;14.39;42.59;100497.63;5038249;28;20045;-79